sensor_id;sensor_type;location;lat;lon;timestamp;pressure;altitude;pressure_sealevel;temperature;humidity
54236;BME280;40151;43.606;1.472;2023-02-15T00:01:36;100360.22;;;16.71;51.45
54236;BME280;40151;43.606;1.472;2023-02-15T00:04:02;100356.69;;;16.72;51.53
54236;BME280;40151;43.606;1.472;2023-02-15T00:06:28;100353.25;;;16.70;51.53
54236;BME280;40151;43.606;1.472;2023-02-15T00:08:54;100354.97;;;16.71;51.60
54236;BME280;40151;43.606;1.472;2023-02-15T00:11:20;100348.81;;;16.70;51.55
54236;BME280;40151;43.606;1.472;2023-02-15T00:14:24;100353.13;;;16.73;51.31
54236;BME280;40151;43.606;1.472;2023-02-15T00:16:52;100357.59;;;16.71;51.72
54236;BME280;40151;43.606;1.472;2023-02-15T00:19:20;100354.09;;;16.70;51.60
54236;BME280;40151;43.606;1.472;2023-02-15T00:21:46;100358.50;;;16.70;51.87
54236;BME280;40151;43.606;1.472;2023-02-15T00:24:14;100353.13;;;16.73;51.23
54236;BME280;40151;43.606;1.472;2023-02-15T00:26:41;100354.84;;;16.74;51.33
54236;BME280;40151;43.606;1.472;2023-02-15T00:29:08;100360.97;;;16.76;51.56
54236;BME280;40151;43.606;1.472;2023-02-15T00:31:34;100352.19;;;16.75;51.28
54236;BME280;40151;43.606;1.472;2023-02-15T00:34:07;100347.78;;;16.76;51.43
54236;BME280;40151;43.606;1.472;2023-02-15T00:36:33;100354.84;;;16.74;51.72
54236;BME280;40151;43.606;1.472;2023-02-15T00:38:58;100344.31;;;16.74;51.60
54236;BME280;40151;43.606;1.472;2023-02-15T00:41:23;100341.63;;;16.75;51.49
54236;BME280;40151;43.606;1.472;2023-02-15T00:43:49;100344.25;;;16.77;51.52
54236;BME280;40151;43.606;1.472;2023-02-15T00:46:14;100339.81;;;16.77;51.60
54236;BME280;40151;43.606;1.472;2023-02-15T00:48:40;100349.50;;;16.77;51.40
54236;BME280;40151;43.606;1.472;2023-02-15T00:51:05;100342.41;;;16.79;51.36
54236;BME280;40151;43.606;1.472;2023-02-15T00:53:31;100341.63;;;16.75;51.98
54236;BME280;40151;43.606;1.472;2023-02-15T00:55:57;100347.69;;;16.79;51.48
54236;BME280;40151;43.606;1.472;2023-02-15T00:58:23;100347.69;;;16.79;51.66
54236;BME280;40151;43.606;1.472;2023-02-15T01:00:49;100346.84;;;16.78;51.58
54236;BME280;40151;43.606;1.472;2023-02-15T01:03:15;100345.97;;;16.78;51.56
54236;BME280;40151;43.606;1.472;2023-02-15T01:05:41;100341.56;;;16.78;52.03
54236;BME280;40151;43.606;1.472;2023-02-15T01:08:06;100339.78;;;16.79;51.63
54236;BME280;40151;43.606;1.472;2023-02-15T01:10:33;100342.41;;;16.79;51.77
54236;BME280;40151;43.606;1.472;2023-02-15T01:12:59;100331.97;;;16.76;51.83
54236;BME280;40151;43.606;1.472;2023-02-15T01:15:25;100333.59;;;16.80;51.84
54236;BME280;40151;43.606;1.472;2023-02-15T01:17:51;100338.88;;;16.80;51.97
54236;BME280;40151;43.606;1.472;2023-02-15T01:20:26;100340.63;;;16.81;51.77
54236;BME280;40151;43.606;1.472;2023-02-15T01:22:52;100345.88;;;16.81;51.66
54236;BME280;40151;43.606;1.472;2023-02-15T01:25:19;100336.19;;;16.82;51.52
54236;BME280;40151;43.606;1.472;2023-02-15T01:27:45;100342.38;;;16.81;51.79
54236;BME280;40151;43.606;1.472;2023-02-15T01:30:11;100345.88;;;16.81;51.98
54236;BME280;40151;43.606;1.472;2023-02-15T01:32:37;100349.31;;;16.83;51.60
54236;BME280;40151;43.606;1.472;2023-02-15T01:35:03;100349.31;;;16.83;52.01
54236;BME280;40151;43.606;1.472;2023-02-15T01:37:30;100352.72;;;16.87;51.56
54236;BME280;40151;43.606;1.472;2023-02-15T01:39:56;100348.41;;;16.84;51.81
54236;BME280;40151;43.606;1.472;2023-02-15T01:42:23;100344.03;;;16.85;52.01
54236;BME280;40151;43.606;1.472;2023-02-15T01:50:00;100350.97;;;16.87;51.56
54236;BME280;40151;43.606;1.472;2023-02-15T01:52:26;100349.28;;;16.85;52.14
54236;BME280;40151;43.606;1.472;2023-02-15T01:54:52;100356.25;;;16.87;51.65
54236;BME280;40151;43.606;1.472;2023-02-15T01:57:22;100348.38;;;16.86;51.96
54236;BME280;40151;43.606;1.472;2023-02-15T01:59:53;100344.78;;;16.88;51.85
54236;BME280;40151;43.606;1.472;2023-02-15T02:02:21;100337.72;;;16.89;51.97
54236;BME280;40151;43.606;1.472;2023-02-15T02:04:51;100344.72;;;16.90;51.94
54236;BME280;40151;43.606;1.472;2023-02-15T02:07:20;100340.31;;;16.90;52.01
54236;BME280;40151;43.606;1.472;2023-02-15T02:09:47;100340.31;;;16.90;51.81
54236;BME280;40151;43.606;1.472;2023-02-15T02:12:14;100328.06;;;16.89;51.90
54236;BME280;40151;43.606;1.472;2023-02-15T02:14:42;100335.06;;;16.90;51.66
54236;BME280;40151;43.606;1.472;2023-02-15T02:33:47;100335.84;;;16.92;51.66
54236;BME280;40151;43.606;1.472;2023-02-15T02:39:02;100332.38;;;16.92;52.14
54236;BME280;40151;43.606;1.472;2023-02-15T02:41:32;100333.22;;;16.92;52.06
54236;BME280;40151;43.606;1.472;2023-02-15T02:44:10;100328.78;;;16.95;51.98
54236;BME280;40151;43.606;1.472;2023-02-15T02:46:50;100326.16;;;16.95;52.34
54236;BME280;40151;43.606;1.472;2023-02-15T02:49:37;100318.28;;;16.93;52.02
54236;BME280;40151;43.606;1.472;2023-02-15T02:52:06;100313.88;;;16.94;52.31
54236;BME280;40151;43.606;1.472;2023-02-15T02:54:34;100313.78;;;16.97;51.90
54236;BME280;40151;43.606;1.472;2023-02-15T02:57:05;100299.78;;;16.95;51.94
54236;BME280;40151;43.606;1.472;2023-02-15T02:59:37;100303.25;;;16.95;52.15
54236;BME280;40151;43.606;1.472;2023-02-15T03:02:13;100305.06;;;16.95;52.08
54236;BME280;40151;43.606;1.472;2023-02-15T03:04:47;100304.16;;;16.96;51.98
54236;BME280;40151;43.606;1.472;2023-02-15T03:07:18;100306.78;;;16.96;52.00
54236;BME280;40151;43.606;1.472;2023-02-15T03:09:50;100298.81;;;16.97;52.17
54236;BME280;40151;43.606;1.472;2023-02-15T03:12:22;100297.94;;;16.97;51.97
54236;BME280;40151;43.606;1.472;2023-02-15T03:14:52;100300.59;;;16.97;52.25
54236;BME280;40151;43.606;1.472;2023-02-15T03:17:22;100296.19;;;16.97;52.51
54236;BME280;40151;43.606;1.472;2023-02-15T03:19:50;100292.59;;;17.00;52.25
54236;BME280;40151;43.606;1.472;2023-02-15T03:22:22;100285.56;;;16.99;52.19
54236;BME280;40151;43.606;1.472;2023-02-15T03:25:01;100289.13;;;16.98;52.04
54236;BME280;40151;43.606;1.472;2023-02-15T03:27:42;100285.56;;;16.99;51.90
54236;BME280;40151;43.606;1.472;2023-02-15T03:30:11;100287.31;;;17.00;52.11
54236;BME280;40151;43.606;1.472;2023-02-15T03:32:37;100294.31;;;17.01;52.19
54236;BME280;40151;43.606;1.472;2023-02-15T03:35:05;100287.31;;;17.00;52.34
54236;BME280;40151;43.606;1.472;2023-02-15T03:37:44;100282.94;;;16.99;51.89
54236;BME280;40151;43.606;1.472;2023-02-15T03:40:34;100287.31;;;17.00;52.23
54236;BME280;40151;43.606;1.472;2023-02-15T03:43:32;100299.59;;;17.01;52.31
54236;BME280;40151;43.606;1.472;2023-02-15T03:46:17;100291.69;;;17.01;52.29
54236;BME280;40151;43.606;1.472;2023-02-15T03:48:51;100301.31;;;17.02;52.45
54236;BME280;40151;43.606;1.472;2023-02-15T03:51:20;100304.00;;;17.00;52.41
54236;BME280;40151;43.606;1.472;2023-02-15T03:54:10;100316.34;;;17.00;52.29
54236;BME280;40151;43.606;1.472;2023-02-15T03:56:41;100313.63;;;17.03;52.56
54236;BME280;40151;43.606;1.472;2023-02-15T03:59:27;100314.50;;;17.02;52.25
54236;BME280;40151;43.606;1.472;2023-02-15T04:02:21;100303.06;;;17.03;52.07
54236;BME280;40151;43.606;1.472;2023-02-15T04:04:49;100311.81;;;17.05;52.04
54236;BME280;40151;43.606;1.472;2023-02-15T04:07:14;100306.59;;;17.02;52.51
54236;BME280;40151;43.606;1.472;2023-02-15T04:09:40;100308.31;;;17.04;52.30
54236;BME280;40151;43.606;1.472;2023-02-15T04:12:24;100309.97;;;17.07;51.92
54236;BME280;40151;43.606;1.472;2023-02-15T04:14:49;100313.53;;;17.06;52.20
54236;BME280;40151;43.606;1.472;2023-02-15T04:17:33;100313.63;;;17.03;52.39
54236;BME280;40151;43.606;1.472;2023-02-15T04:19:58;100317.09;;;17.05;52.59
54236;BME280;40151;43.606;1.472;2023-02-15T04:22:43;100319.66;;;17.07;52.40
54236;BME280;40151;43.606;1.472;2023-02-15T04:25:26;100322.38;;;17.05;52.26
54236;BME280;40151;43.606;1.472;2023-02-15T04:27:53;100327.63;;;17.05;52.63
54236;BME280;40151;43.606;1.472;2023-02-15T04:30:21;100325.81;;;17.07;52.28
54236;BME280;40151;43.606;1.472;2023-02-15T04:32:47;100319.66;;;17.07;52.51
54236;BME280;40151;43.606;1.472;2023-02-15T04:35:13;100319.66;;;17.07;52.19
54236;BME280;40151;43.606;1.472;2023-02-15T04:37:39;100321.34;;;17.09;51.97
54236;BME280;40151;43.606;1.472;2023-02-15T04:40:06;100319.66;;;17.07;52.27
54236;BME280;40151;43.606;1.472;2023-02-15T04:42:32;100324.88;;;17.08;52.28
54236;BME280;40151;43.606;1.472;2023-02-15T04:44:57;100325.81;;;17.07;52.56
54236;BME280;40151;43.606;1.472;2023-02-15T04:47:23;100328.44;;;17.07;52.27
54236;BME280;40151;43.606;1.472;2023-02-15T04:49:48;100325.81;;;17.07;52.49
54236;BME280;40151;43.606;1.472;2023-02-15T04:52:14;100326.66;;;17.08;52.70
54236;BME280;40151;43.606;1.472;2023-02-15T04:54:39;100330.13;;;17.10;52.20
54236;BME280;40151;43.606;1.472;2023-02-15T04:57:05;100328.34;;;17.10;52.64
54236;BME280;40151;43.606;1.472;2023-02-15T04:59:31;100319.53;;;17.11;52.22
54236;BME280;40151;43.606;1.472;2023-02-15T05:01:57;100327.44;;;17.11;52.18
54236;BME280;40151;43.606;1.472;2023-02-15T05:04:22;100335.41;;;17.10;52.25
54236;BME280;40151;43.606;1.472;2023-02-15T05:06:47;100330.00;;;17.13;51.94
54236;BME280;40151;43.606;1.472;2023-02-15T05:09:13;100322.16;;;17.11;52.33
54236;BME280;40151;43.606;1.472;2023-02-15T05:11:39;100329.25;;;17.09;52.44
54236;BME280;40151;43.606;1.472;2023-02-15T05:14:04;100325.69;;;17.10;52.60
54236;BME280;40151;43.606;1.472;2023-02-15T05:16:30;100327.44;;;17.11;52.66
54236;BME280;40151;43.606;1.472;2023-02-15T05:18:55;100327.44;;;17.11;52.55
54236;BME280;40151;43.606;1.472;2023-02-15T05:21:21;100324.81;;;17.11;52.12
54236;BME280;40151;43.606;1.472;2023-02-15T05:23:46;100325.69;;;17.10;52.78
54236;BME280;40151;43.606;1.472;2023-02-15T05:26:16;100322.16;;;17.11;52.12
54236;BME280;40151;43.606;1.472;2023-02-15T05:29:00;100323.13;;;17.09;52.75
54236;BME280;40151;43.606;1.472;2023-02-15T05:31:26;100330.00;;;17.13;52.36
54236;BME280;40151;43.606;1.472;2023-02-15T05:33:51;100320.41;;;17.10;52.40
54236;BME280;40151;43.606;1.472;2023-02-15T05:36:17;100331.81;;;17.12;52.48
54236;BME280;40151;43.606;1.472;2023-02-15T05:38:42;100323.00;;;17.12;52.29
54236;BME280;40151;43.606;1.472;2023-02-15T05:41:09;100318.63;;;17.12;52.23
54236;BME280;40151;43.606;1.472;2023-02-15T05:43:35;100326.53;;;17.12;52.49
54236;BME280;40151;43.606;1.472;2023-02-15T05:46:02;100322.06;;;17.14;52.10
54236;BME280;40151;43.606;1.472;2023-02-15T05:48:28;100320.34;;;17.13;52.23
54236;BME280;40151;43.606;1.472;2023-02-15T05:53:22;100330.88;;;17.13;55.24
54236;BME280;40151;43.606;1.472;2023-02-15T05:55:48;100329.06;;;17.15;55.14
54236;BME280;40151;43.606;1.472;2023-02-15T05:58:13;100326.38;;;17.17;54.75
54236;BME280;40151;43.606;1.472;2023-02-15T06:00:38;100333.34;;;17.20;54.52
54236;BME280;40151;43.606;1.472;2023-02-15T06:03:04;100329.75;;;17.22;56.15
54236;BME280;40151;43.606;1.472;2023-02-15T06:05:29;100327.97;;;17.23;56.68
54236;BME280;40151;43.606;1.472;2023-02-15T06:07:55;100325.22;;;17.26;56.96
54236;BME280;40151;43.606;1.472;2023-02-15T06:10:20;100325.19;;;17.27;57.24
54236;BME280;40151;43.606;1.472;2023-02-15T06:12:46;100325.03;;;17.32;57.22
54236;BME280;40151;43.606;1.472;2023-02-15T06:15:11;100327.66;;;17.32;57.14
54236;BME280;40151;43.606;1.472;2023-02-15T06:17:37;100337.22;;;17.36;56.62
54236;BME280;40151;43.606;1.472;2023-02-15T06:20:03;100338.84;;;17.40;56.82
54236;BME280;40151;43.606;1.472;2023-02-15T06:22:28;100334.38;;;17.42;56.21
54236;BME280;40151;43.606;1.472;2023-02-15T06:24:54;100340.59;;;17.41;56.21
54236;BME280;40151;43.606;1.472;2023-02-15T06:27:19;100342.31;;;17.42;56.02
54236;BME280;40151;43.606;1.472;2023-02-15T06:29:45;100335.19;;;17.44;55.86
54236;BME280;40151;43.606;1.472;2023-02-15T06:32:10;100335.16;;;17.46;54.96
54236;BME280;40151;43.606;1.472;2023-02-15T06:34:35;100343.94;;;17.47;55.38
54236;BME280;40151;43.606;1.472;2023-02-15T06:37:01;100342.09;;;17.49;55.21
54236;BME280;40151;43.606;1.472;2023-02-15T06:39:26;100351.78;;;17.48;55.50
54236;BME280;40151;43.606;1.472;2023-02-15T06:41:52;100350.03;;;17.49;55.44
54236;BME280;40151;43.606;1.472;2023-02-15T06:44:17;100354.38;;;17.50;55.31
54236;BME280;40151;43.606;1.472;2023-02-15T06:46:42;100354.38;;;17.50;54.96
54236;BME280;40151;43.606;1.472;2023-02-15T06:49:08;100357.97;;;17.47;55.09
54236;BME280;40151;43.606;1.472;2023-02-15T06:51:33;100362.25;;;17.51;54.17
54236;BME280;40151;43.606;1.472;2023-02-15T06:53:59;100363.16;;;17.50;54.19
54236;BME280;40151;43.606;1.472;2023-02-15T06:56:25;100370.25;;;17.48;54.14
54236;BME280;40151;43.606;1.472;2023-02-15T06:58:50;100366.78;;;17.48;53.66
54236;BME280;40151;43.606;1.472;2023-02-15T07:01:18;100365.88;;;17.47;54.10
54236;BME280;40151;43.606;1.472;2023-02-15T07:03:44;100365.84;;;17.49;53.61
54236;BME280;40151;43.606;1.472;2023-02-15T07:06:10;100361.50;;;17.48;53.60
54236;BME280;40151;43.606;1.472;2023-02-15T07:08:37;100367.69;;;17.47;53.42
54236;BME280;40151;43.606;1.472;2023-02-15T07:11:03;100368.56;;;17.45;53.62
54236;BME280;40151;43.606;1.472;2023-02-15T07:13:47;100380.88;;;17.47;53.26
54236;BME280;40151;43.606;1.472;2023-02-15T07:16:13;100387.91;;;17.46;53.52
54236;BME280;40151;43.606;1.472;2023-02-15T07:18:39;100394.97;;;17.45;53.35
54236;BME280;40151;43.606;1.472;2023-02-15T07:21:05;100392.31;;;17.45;53.24
54236;BME280;40151;43.606;1.472;2023-02-15T07:23:37;100398.50;;;17.44;53.27
54236;BME280;40151;43.606;1.472;2023-02-15T07:26:04;100403.78;;;17.44;52.96
54236;BME280;40151;43.606;1.472;2023-02-15T07:28:30;100412.53;;;17.47;52.66
54236;BME280;40151;43.606;1.472;2023-02-15T07:30:55;100410.78;;;17.45;53.06
54236;BME280;40151;43.606;1.472;2023-02-15T07:33:22;100412.53;;;17.47;52.66
54236;BME280;40151;43.606;1.472;2023-02-15T07:35:56;100417.91;;;17.43;52.79
54236;BME280;40151;43.606;1.472;2023-02-15T07:38:24;100422.25;;;17.44;52.68
54236;BME280;40151;43.606;1.472;2023-02-15T07:40:50;100417.09;;;17.41;52.66
54236;BME280;40151;43.606;1.472;2023-02-15T07:43:15;100416.19;;;17.42;52.45
54236;BME280;40151;43.606;1.472;2023-02-15T07:45:41;100415.25;;;17.43;52.62
54236;BME280;40151;43.606;1.472;2023-02-15T07:48:07;100424.91;;;17.44;52.51
54236;BME280;40151;43.606;1.472;2023-02-15T07:50:33;100423.19;;;17.43;52.48
54236;BME280;40151;43.606;1.472;2023-02-15T07:52:58;100430.19;;;17.44;52.54
54236;BME280;40151;43.606;1.472;2023-02-15T07:55:26;100428.44;;;17.43;52.57
54236;BME280;40151;43.606;1.472;2023-02-15T07:57:51;100426.72;;;17.42;52.50
54236;BME280;40151;43.606;1.472;2023-02-15T08:00:20;100427.56;;;17.43;52.32
54236;BME280;40151;43.606;1.472;2023-02-15T08:02:51;100439.94;;;17.42;52.49
54236;BME280;40151;43.606;1.472;2023-02-15T08:05:35;100433.84;;;17.40;52.63
54236;BME280;40151;43.606;1.472;2023-02-15T08:08:01;100428.56;;;17.40;52.60
54236;BME280;40151;43.606;1.472;2023-02-15T08:10:26;100439.13;;;17.40;52.65
54236;BME280;40151;43.606;1.472;2023-02-15T08:13:12;100438.25;;;17.40;52.19
54236;BME280;40151;43.606;1.472;2023-02-15T08:15:37;100439.16;;;17.39;52.60
54236;BME280;40151;43.606;1.472;2023-02-15T08:18:03;100438.25;;;17.40;52.15
54236;BME280;40151;43.606;1.472;2023-02-15T08:20:28;100430.38;;;17.38;52.12
54236;BME280;40151;43.606;1.472;2023-02-15T08:22:53;100433.88;;;17.39;52.29
54236;BME280;40151;43.606;1.472;2023-02-15T08:25:19;100431.28;;;17.37;52.21
54236;BME280;40151;43.606;1.472;2023-02-15T08:27:44;100434.84;;;17.36;52.21
54236;BME280;40151;43.606;1.472;2023-02-15T08:30:10;100440.16;;;17.35;52.36
54236;BME280;40151;43.606;1.472;2023-02-15T08:32:36;100438.44;;;17.34;52.07
54236;BME280;40151;43.606;1.472;2023-02-15T08:35:02;100434.00;;;17.34;52.20
54236;BME280;40151;43.606;1.472;2023-02-15T08:37:27;100441.09;;;17.32;51.92
54236;BME280;40151;43.606;1.472;2023-02-15T08:39:53;100443.75;;;17.32;52.20
54236;BME280;40151;43.606;1.472;2023-02-15T08:42:18;100449.81;;;17.34;52.05
54236;BME280;40151;43.606;1.472;2023-02-15T08:44:45;100442.94;;;17.30;52.08
54236;BME280;40151;43.606;1.472;2023-02-15T08:47:11;100438.50;;;17.30;52.04
54236;BME280;40151;43.606;1.472;2023-02-15T08:49:37;100444.66;;;17.31;51.89
54236;BME280;40151;43.606;1.472;2023-02-15T08:52:02;100449.94;;;17.31;52.04
54236;BME280;40151;43.606;1.472;2023-02-15T08:54:28;100448.22;;;17.30;52.01
54236;BME280;40151;43.606;1.472;2023-02-15T08:56:53;100452.59;;;17.29;51.78
54236;BME280;40151;43.606;1.472;2023-02-15T08:59:21;100456.13;;;17.30;51.71
54236;BME280;40151;43.606;1.472;2023-02-15T09:01:49;100453.50;;;17.30;51.56
54236;BME280;40151;43.606;1.472;2023-02-15T09:04:15;100453.50;;;17.30;51.71
54236;BME280;40151;43.606;1.472;2023-02-15T09:06:41;100453.50;;;17.30;51.73
54236;BME280;40151;43.606;1.472;2023-02-15T09:09:10;100457.88;;;17.29;51.96
54236;BME280;40151;43.606;1.472;2023-02-15T09:11:41;100457.03;;;17.29;51.46
54236;BME280;40151;43.606;1.472;2023-02-15T09:14:09;100450.97;;;17.25;51.53
54236;BME280;40151;43.606;1.472;2023-02-15T09:16:37;100451.75;;;17.29;51.47
54236;BME280;40151;43.606;1.472;2023-02-15T09:19:05;100464.94;;;17.29;51.49
54236;BME280;40151;43.606;1.472;2023-02-15T09:21:33;100457.88;;;17.29;51.50
54236;BME280;40151;43.606;1.472;2023-02-15T09:24:02;100470.16;;;17.30;51.37
54236;BME280;40151;43.606;1.472;2023-02-15T09:26:29;100472.00;;;17.28;51.34
54236;BME280;40151;43.606;1.472;2023-02-15T09:28:57;100465.84;;;17.28;51.41
54236;BME280;40151;43.606;1.472;2023-02-15T09:31:28;100476.38;;;17.28;51.57
54236;BME280;40151;43.606;1.472;2023-02-15T09:33:55;100473.75;;;17.28;51.50
54236;BME280;40151;43.606;1.472;2023-02-15T09:36:25;100476.38;;;17.28;51.55
54236;BME280;40151;43.606;1.472;2023-02-15T09:39:15;100475.53;;;17.27;51.59
54236;BME280;40151;43.606;1.472;2023-02-15T09:50:23;100473.72;;;17.29;51.63
54236;BME280;40151;43.606;1.472;2023-02-15T10:01:40;100473.75;;;17.28;51.42
54236;BME280;40151;43.606;1.472;2023-02-15T10:04:34;100476.34;;;17.29;51.29
54236;BME280;40151;43.606;1.472;2023-02-15T10:13:00;100482.50;;;17.30;51.26
54236;BME280;40151;43.606;1.472;2023-02-15T10:18:10;100482.50;;;17.30;51.12
54236;BME280;40151;43.606;1.472;2023-02-15T10:21:07;100484.25;;;17.29;51.20
54236;BME280;40151;43.606;1.472;2023-02-15T10:23:54;100483.41;;;17.29;51.26
54236;BME280;40151;43.606;1.472;2023-02-15T10:26:44;100490.41;;;17.30;51.45
54236;BME280;40151;43.606;1.472;2023-02-15T10:29:35;100488.59;;;17.32;51.15
54236;BME280;40151;43.606;1.472;2023-02-15T10:34:51;100489.47;;;17.33;51.10
54236;BME280;40151;43.606;1.472;2023-02-15T10:37:31;100500.03;;;17.33;51.20
54236;BME280;40151;43.606;1.472;2023-02-15T10:43:11;100492.03;;;17.34;51.21
54236;BME280;40151;43.606;1.472;2023-02-15T10:50:57;100504.34;;;17.35;51.20
54236;BME280;40151;43.606;1.472;2023-02-15T11:01:54;100487.59;;;17.36;50.91
54236;BME280;40151;43.606;1.472;2023-02-15T11:09:53;100488.44;;;17.37;51.09
54236;BME280;40151;43.606;1.472;2023-02-15T11:12:24;100477.09;;;17.35;51.08
54236;BME280;40151;43.606;1.472;2023-02-15T11:15:10;100490.25;;;17.36;51.06
54236;BME280;40151;43.606;1.472;2023-02-15T11:17:48;100490.13;;;17.39;50.85
54236;BME280;40151;43.606;1.472;2023-02-15T11:20:24;100484.84;;;17.39;50.84
54236;BME280;40151;43.606;1.472;2023-02-15T11:22:53;100486.59;;;17.40;50.78
54236;BME280;40151;43.606;1.472;2023-02-15T11:25:29;100481.34;;;17.40;50.84
54236;BME280;40151;43.606;1.472;2023-02-15T11:27:56;100481.34;;;17.40;51.05
54236;BME280;40151;43.606;1.472;2023-02-15T11:30:24;100488.34;;;17.41;51.09
54236;BME280;40151;43.606;1.472;2023-02-15T11:32:57;100490.06;;;17.42;50.78
54236;BME280;40151;43.606;1.472;2023-02-15T11:35:47;100490.06;;;17.42;50.88
54236;BME280;40151;43.606;1.472;2023-02-15T11:38:23;100485.59;;;17.44;50.93
54236;BME280;40151;43.606;1.472;2023-02-15T11:41:15;100491.69;;;17.47;50.91
54236;BME280;40151;43.606;1.472;2023-02-15T11:43:54;100482.88;;;17.48;50.80
54236;BME280;40151;43.606;1.472;2023-02-15T11:46:22;100483.78;;;17.47;50.82
54236;BME280;40151;43.606;1.472;2023-02-15T11:48:47;100486.44;;;17.47;50.74
54236;BME280;40151;43.606;1.472;2023-02-15T11:51:21;100470.59;;;17.47;50.75
54236;BME280;40151;43.606;1.472;2023-02-15T11:53:47;100471.41;;;17.49;50.73
54236;BME280;40151;43.606;1.472;2023-02-15T11:56:20;100474.06;;;17.47;50.67
54236;BME280;40151;43.606;1.472;2023-02-15T11:58:51;100474.03;;;17.49;50.69
54236;BME280;40151;43.606;1.472;2023-02-15T12:01:32;100467.88;;;17.48;50.73
54236;BME280;40151;43.606;1.472;2023-02-15T12:06:28;100475.75;;;17.50;50.55
54236;BME280;40151;43.606;1.472;2023-02-15T12:09:03;100474.00;;;17.50;50.62
54236;BME280;40151;43.606;1.472;2023-02-15T12:11:39;100473.94;;;17.52;50.71
54236;BME280;40151;43.606;1.472;2023-02-15T12:14:10;100470.41;;;17.53;50.90
54236;BME280;40151;43.606;1.472;2023-02-15T12:16:45;100468.66;;;17.52;50.88
54236;BME280;40151;43.606;1.472;2023-02-15T12:21:49;100472.13;;;17.54;50.64
54236;BME280;40151;43.606;1.472;2023-02-15T12:24:32;100470.34;;;17.54;50.58
54236;BME280;40151;43.606;1.472;2023-02-15T12:27:12;100462.50;;;17.53;50.39
54236;BME280;40151;43.606;1.472;2023-02-15T12:29:46;100457.13;;;17.54;50.46
54236;BME280;40151;43.606;1.472;2023-02-15T12:32:26;100456.28;;;17.54;50.57
54236;BME280;40151;43.606;1.472;2023-02-15T12:34:59;100458.03;;;17.55;50.57
54236;BME280;40151;43.606;1.472;2023-02-15T12:37:28;100460.63;;;17.56;50.59
54236;BME280;40151;43.606;1.472;2023-02-15T12:39:56;100457.09;;;17.56;50.54
54236;BME280;40151;43.606;1.472;2023-02-15T12:42:23;100456.19;;;17.57;50.77
54236;BME280;40151;43.606;1.472;2023-02-15T12:45:01;100449.19;;;17.56;50.60
54236;BME280;40151;43.606;1.472;2023-02-15T12:47:28;100449.09;;;17.59;50.75
54236;BME280;40151;43.606;1.472;2023-02-15T12:52:42;100442.09;;;17.58;50.64
54236;BME280;40151;43.606;1.472;2023-02-15T12:55:27;100443.81;;;17.59;50.94
54236;BME280;40151;43.606;1.472;2023-02-15T12:58:28;100432.38;;;17.58;50.60
54236;BME280;40151;43.606;1.472;2023-02-15T13:01:02;100435.00;;;17.60;50.82
54236;BME280;40151;43.606;1.472;2023-02-15T13:03:28;100443.81;;;17.59;50.73
54236;BME280;40151;43.606;1.472;2023-02-15T13:05:56;100442.03;;;17.60;50.76
54236;BME280;40151;43.606;1.472;2023-02-15T13:08:39;100439.41;;;17.60;50.77
54236;BME280;40151;43.606;1.472;2023-02-15T13:11:11;100436.72;;;17.61;50.71
54236;BME280;40151;43.606;1.472;2023-02-15T13:14:00;100436.72;;;17.61;50.81
54236;BME280;40151;43.606;1.472;2023-02-15T13:16:34;100441.94;;;17.63;50.55
54236;BME280;40151;43.606;1.472;2023-02-15T13:21:42;100431.34;;;17.64;50.60
54236;BME280;40151;43.606;1.472;2023-02-15T13:24:22;100432.25;;;17.63;50.43
54236;BME280;40151;43.606;1.472;2023-02-15T13:26:49;100434.88;;;17.63;50.78
54236;BME280;40151;43.606;1.472;2023-02-15T13:29:46;100438.34;;;17.65;50.58
54236;BME280;40151;43.606;1.472;2023-02-15T13:32:25;100439.19;;;17.66;50.67
54236;BME280;40151;43.606;1.472;2023-02-15T13:34:55;100434.84;;;17.65;50.56
54236;BME280;40151;43.606;1.472;2023-02-15T13:40:19;100440.06;;;17.66;50.80
54236;BME280;40151;43.606;1.472;2023-02-15T13:42:54;100425.97;;;17.67;50.54
54236;BME280;40151;43.606;1.472;2023-02-15T13:45:38;100431.16;;;17.70;50.68
54236;BME280;40151;43.606;1.472;2023-02-15T13:48:16;100437.31;;;17.69;50.64
54236;BME280;40151;43.606;1.472;2023-02-15T13:56:11;100425.88;;;17.70;50.77
54236;BME280;40151;43.606;1.472;2023-02-15T14:07:33;100412.59;;;17.72;50.37
54236;BME280;40151;43.606;1.472;2023-02-15T14:10:47;100410.03;;;17.70;50.72
54236;BME280;40151;43.606;1.472;2023-02-15T14:18:42;100413.47;;;17.73;50.32
54236;BME280;40151;43.606;1.472;2023-02-15T14:29:02;100416.94;;;17.75;50.65
54236;BME280;40151;43.606;1.472;2023-02-15T14:31:41;100416.94;;;17.75;50.60
54236;BME280;40151;43.606;1.472;2023-02-15T14:37:11;100426.56;;;17.76;50.51
54236;BME280;40151;43.606;1.472;2023-02-15T14:39:44;100422.19;;;17.75;50.50
54236;BME280;40151;43.606;1.472;2023-02-15T14:48:11;100423.94;;;17.76;50.71
54236;BME280;40151;43.606;1.472;2023-02-15T14:50:41;100420.41;;;17.77;50.45
54236;BME280;40151;43.606;1.472;2023-02-15T14:58:37;100425.69;;;17.77;50.60
54236;BME280;40151;43.606;1.472;2023-02-15T15:01:09;100423.84;;;17.79;50.66
54236;BME280;40151;43.606;1.472;2023-02-15T15:03:35;100416.84;;;17.78;50.50
54236;BME280;40151;43.606;1.472;2023-02-15T15:06:03;100425.69;;;17.77;50.21
54236;BME280;40151;43.606;1.472;2023-02-15T15:08:40;100426.47;;;17.79;50.37
54236;BME280;40151;43.606;1.472;2023-02-15T15:13:58;100429.13;;;17.79;50.16
54236;BME280;40151;43.606;1.472;2023-02-15T15:19:00;100430.81;;;17.81;50.51
54236;BME280;40151;43.606;1.472;2023-02-15T15:21:54;100427.28;;;17.81;50.23
54236;BME280;40151;43.606;1.472;2023-02-15T15:35:33;100437.00;;;17.80;50.47
54236;BME280;40151;43.606;1.472;2023-02-15T15:38:33;100428.16;;;17.81;50.42